createdAt,value
2023-04-14T00:01:02.549Z,101094.53
2023-04-14T00:03:29.618Z,101094.53
2023-04-14T00:05:56.544Z,101089.59
2023-04-14T00:08:23.092Z,101035.50
2023-04-14T00:10:49.654Z,101093.16
2023-04-14T00:13:16.301Z,101100.66
2023-04-14T00:15:42.925Z,101103.88
2023-04-14T00:18:09.512Z,100994.31
2023-04-14T00:20:36.069Z,101100.66
2023-04-14T00:23:02.662Z,101105.19
2023-04-14T00:25:29.250Z,101097.88
2023-04-14T00:27:56.097Z,101104.28
2023-04-14T00:30:22.832Z,101107.81
2023-04-14T00:32:49.404Z,101041.84
2023-04-14T00:35:16.117Z,101107.88
2023-04-14T00:37:42.703Z,101120.78
2023-04-14T00:40:10.108Z,101087.56
2023-04-14T00:42:46.895Z,101132.22
2023-04-14T00:45:15.051Z,101082.59
2023-04-14T00:47:46.961Z,101123.00
2023-04-14T00:53:05.831Z,101126.66
2023-04-14T00:55:33.732Z,101087.28
2023-04-14T00:58:01.575Z,101094.28
2023-04-14T01:00:28.691Z,101126.84
2023-04-14T01:02:55.438Z,101110.25
2023-04-14T01:05:22.425Z,101126.38
2023-04-14T01:07:49.786Z,101094.59
2023-04-14T01:10:16.746Z,101123.00
2023-04-14T01:12:46.487Z,101138.69
2023-04-14T01:15:35.748Z,101163.66
2023-04-14T01:18:14.745Z,101137.81
2023-04-14T01:20:43.839Z,101127.59
2023-04-14T01:23:21.807Z,101127.22
2023-04-14T01:26:09.379Z,101128.19
2023-04-14T01:29:00.191Z,100975.81
2023-04-14T01:31:32.701Z,101032.38
2023-04-14T01:34:09.769Z,101127.72
2023-04-14T01:37:05.128Z,101142.75
2023-04-14T01:39:36.620Z,101090.16
2023-04-14T01:42:06.823Z,101146.00
2023-04-14T01:44:35.544Z,101118.84
2023-04-14T01:47:05.965Z,101141.72
2023-04-14T01:49:35.669Z,101083.22
2023-04-14T01:52:04.860Z,101141.72
2023-04-14T01:54:33.562Z,101142.75
2023-04-14T01:57:03.219Z,101140.28
2023-04-14T01:59:31.285Z,101141.81
2023-04-14T02:02:01.694Z,101117.72
2023-04-14T02:04:31.163Z,101089.09
2023-04-14T02:07:00.474Z,101140.75
2023-04-14T02:09:28.400Z,101038.75
2023-04-14T02:11:55.965Z,101146.22
2023-04-14T02:14:24.679Z,100980.25
2023-04-14T02:16:53.916Z,101145.41
2023-04-14T02:19:23.112Z,101092.84
2023-04-14T02:21:51.439Z,101141.44
2023-04-14T02:24:18.870Z,101140.09
2023-04-14T02:26:58.422Z,101132.91
2023-04-14T02:29:27.772Z,101119.78
2023-04-14T02:32:04.407Z,101153.25
2023-04-14T02:34:37.904Z,101109.84
2023-04-14T02:37:10.200Z,101105.03
2023-04-14T02:39:43.654Z,101163.28
2023-04-14T02:42:15.949Z,101172.00
2023-04-14T02:44:52.149Z,101135.31
2023-04-14T02:47:27.172Z,101183.72
2023-04-14T02:49:56.571Z,101173.31
2023-04-14T02:52:25.587Z,101177.44
2023-04-14T02:54:54.083Z,101142.41
2023-04-14T02:57:21.956Z,101180.19
2023-04-14T02:59:49.769Z,101014.53
2023-04-14T03:02:17.846Z,101175.41
2023-04-14T03:04:44.914Z,101106.88
2023-04-14T03:07:13.512Z,101184.38
2023-04-14T03:09:42.436Z,101187.41
2023-04-14T03:12:14.644Z,101194.13
2023-04-14T03:14:43.165Z,101178.84
2023-04-14T03:17:11.399Z,101182.56
2023-04-14T03:19:40.898Z,101187.41
2023-04-14T03:22:13.097Z,101196.28
2023-04-14T03:24:42.272Z,101200.63
2023-04-14T03:27:12.419Z,101191.56
2023-04-14T03:29:46.705Z,101155.66
2023-04-14T03:32:17.728Z,101028.63
2023-04-14T03:34:48.423Z,101199.94
2023-04-14T03:37:18.165Z,101131.91
2023-04-14T03:39:47.853Z,101199.25
2023-04-14T03:42:14.937Z,101191.75
2023-04-14T03:44:46.338Z,101195.41
2023-04-14T03:47:14.721Z,101185.59
2023-04-14T03:49:46.998Z,101179.34
2023-04-14T03:52:16.997Z,101155.19
2023-04-14T03:54:46.607Z,101207.78
2023-04-14T03:57:17.728Z,101203.09
2023-04-14T03:59:47.319Z,101201.88
2023-04-14T04:02:15.229Z,101194.66
2023-04-14T04:04:43.457Z,101155.03
2023-04-14T04:07:13.679Z,101202.16
2023-04-14T04:09:42.974Z,101198.50
2023-04-14T04:12:13.310Z,101196.38
2023-04-14T04:14:42.814Z,101205.00
2023-04-14T04:17:12.624Z,101205.38
2023-04-14T04:19:40.298Z,101210.53
2023-04-14T04:22:08.692Z,101183.63
2023-04-14T04:24:40.607Z,101197.53
2023-04-14T04:27:17.168Z,101215.97
2023-04-14T04:29:51.654Z,101228.28
2023-04-14T04:32:18.532Z,101236.22
2023-04-14T04:34:46.840Z,101183.91
2023-04-14T04:37:14.343Z,101222.84
2023-04-14T04:39:40.940Z,101175.53
2023-04-14T04:42:07.758Z,101204.28
2023-04-14T04:44:35.345Z,101215.28
2023-04-14T04:47:02.698Z,101196.63
2023-04-14T04:49:29.649Z,101214.22
2023-04-14T04:51:57.228Z,101163.81
2023-04-14T04:54:23.981Z,101225.19
2023-04-14T04:56:50.633Z,101219.31
2023-04-14T04:59:17.613Z,101232.69
2023-04-14T05:01:44.334Z,101174.84
2023-04-14T05:04:11.929Z,101229.31
2023-04-14T05:06:38.836Z,101235.84
2023-04-14T05:09:06.195Z,101223.84
2023-04-14T05:11:33.851Z,101181.94
2023-04-14T05:14:00.723Z,101178.53
2023-04-14T05:16:28.457Z,101205.03
2023-04-14T05:18:55.139Z,101203.91
2023-04-14T05:21:22.181Z,101208.34
2023-04-14T05:23:49.018Z,101169.97
2023-04-14T05:28:46.470Z,101135.50
2023-04-14T05:31:14.235Z,101200.91
2023-04-14T05:33:40.824Z,101200.63
2023-04-14T05:36:07.767Z,101201.06
2023-04-14T05:38:37.712Z,101192.09
2023-04-14T05:41:04.281Z,101201.47
2023-04-14T05:43:30.843Z,101197.44
2023-04-14T05:45:58.698Z,101206.28
2023-04-14T05:48:28.449Z,101183.25
2023-04-14T05:50:55.045Z,101195.56
2023-04-14T05:53:21.743Z,101212.19
2023-04-14T05:55:49.026Z,101199.56
2023-04-14T05:58:15.592Z,101209.59
2023-04-14T06:00:42.169Z,101058.47
2023-04-14T06:03:09.153Z,101200.44
2023-04-14T06:05:36.141Z,101206.72
2023-04-14T06:08:03.847Z,101200.34
2023-04-14T06:10:32.192Z,101196.97
2023-04-14T06:12:58.854Z,101164.97
2023-04-14T06:15:28.360Z,101172.63
2023-04-14T06:17:55.181Z,101096.19
2023-04-14T06:20:22.042Z,101194.97
2023-04-14T06:22:48.620Z,101212.38
2023-04-14T06:25:15.532Z,101199.41
2023-04-14T06:27:42.092Z,101192.94
2023-04-14T06:30:09.298Z,101182.94
2023-04-14T06:32:35.990Z,101181.44
2023-04-14T06:35:05.218Z,101172.25
2023-04-14T06:37:32.385Z,101176.56
2023-04-14T06:39:59.226Z,101157.63
2023-04-14T06:42:25.942Z,101175.59
2023-04-14T06:44:52.515Z,101154.63
2023-04-14T06:47:20.113Z,101172.63
2023-04-14T06:49:46.832Z,101160.34
2023-04-14T06:52:13.432Z,101163.38
2023-04-14T06:54:40.028Z,101163.78
2023-04-14T06:57:06.807Z,101166.69
2023-04-14T06:59:33.393Z,101170.81
2023-04-14T07:02:00.201Z,101162.94
2023-04-14T07:04:26.969Z,101109.38
2023-04-14T07:06:53.624Z,101157.38
2023-04-14T07:09:21.323Z,101170.88
2023-04-14T07:11:48.120Z,101167.66
2023-04-14T07:14:14.825Z,101174.31
2023-04-14T07:16:41.364Z,101157.25
2023-04-14T07:19:08.713Z,101172.94
2023-04-14T07:21:35.350Z,101178.03
2023-04-14T07:24:02.326Z,101168.38
2023-04-14T07:26:29.159Z,101156.25
2023-04-14T07:28:56.217Z,101129.16
2023-04-14T07:31:23.128Z,101115.22
2023-04-14T07:33:49.873Z,101161.75
2023-04-14T07:36:16.452Z,101165.47
2023-04-14T07:38:43.959Z,101109.72
2023-04-14T07:41:10.614Z,101165.34
2023-04-14T07:43:37.419Z,101163.47
2023-04-14T07:46:08.338Z,101164.44
2023-04-14T07:48:37.022Z,101163.69
2023-04-14T07:51:05.190Z,101167.78
2023-04-14T07:53:32.967Z,101168.63
2023-04-14T07:55:59.831Z,101162.56
2023-04-14T07:58:29.028Z,101154.69
2023-04-14T08:00:56.172Z,101155.88
2023-04-14T08:03:22.993Z,101145.03
2023-04-14T08:05:49.868Z,101137.75
2023-04-14T08:08:16.690Z,101143.13
2023-04-14T08:10:43.242Z,101106.13
2023-04-14T08:13:10.193Z,101140.19
2023-04-14T08:15:36.990Z,101120.44
2023-04-14T08:18:03.711Z,101118.66
2023-04-14T08:20:30.342Z,101116.84
2023-04-14T08:22:57.214Z,101100.03
2023-04-14T08:25:24.503Z,101115.00
2023-04-14T08:27:51.182Z,101062.81
2023-04-14T08:30:17.834Z,101080.16
2023-04-14T08:32:44.619Z,101056.31
2023-04-14T08:35:37.480Z,100967.97
2023-04-14T08:38:01.366Z,101047.53
2023-04-14T08:40:38.456Z,101048.91
2023-04-14T08:43:05.954Z,101046.13
2023-04-14T08:45:33.720Z,101053.78
2023-04-14T08:48:01.407Z,101050.31
2023-04-14T08:50:33.963Z,101057.41
2023-04-14T08:53:04.310Z,101051.59
2023-04-14T08:55:32.583Z,101047.25
2023-04-14T08:58:01.568Z,101052.22
2023-04-14T09:00:28.329Z,101025.22
2023-04-14T09:02:56.889Z,101046.47
2023-04-14T09:05:24.058Z,101045.59
2023-04-14T09:07:53.144Z,101050.97
2023-04-14T09:10:21.520Z,101045.72
2023-04-14T09:12:48.530Z,101036.06
2023-04-14T09:15:16.724Z,101005.56
2023-04-14T09:17:44.208Z,101044.34
2023-04-14T09:20:34.614Z,101044.97
2023-04-14T09:22:59.466Z,100975.88
2023-04-14T09:25:26.601Z,101040.19
2023-04-14T09:27:53.412Z,101008.94
2023-04-14T09:30:52.315Z,101042.72
2023-04-14T09:35:50.540Z,101042.66
2023-04-14T09:38:36.657Z,101048.34
2023-04-14T09:41:05.571Z,101049.41
2023-04-14T09:43:32.456Z,101047.06
2023-04-14T09:46:05.664Z,101046.06
2023-04-14T09:48:32.632Z,100997.84
2023-04-14T09:51:07.423Z,101059.03
2023-04-14T09:53:38.174Z,101048.84
2023-04-14T09:56:07.265Z,101054.81
2023-04-14T09:58:39.757Z,101006.94
2023-04-14T10:01:16.533Z,101046.66
2023-04-14T10:03:45.696Z,101052.59
2023-04-14T10:06:18.382Z,101039.84
2023-04-14T10:08:48.864Z,101047.47
2023-04-14T10:11:19.806Z,101055.84
2023-04-14T10:13:48.500Z,101042.38
2023-04-14T10:16:16.014Z,101038.47
2023-04-14T10:18:43.519Z,101040.84
2023-04-14T10:21:11.687Z,101042.69
2023-04-14T10:23:39.632Z,101040.28
2023-04-14T10:26:07.931Z,101035.09
2023-04-14T10:28:36.388Z,101029.66
2023-04-14T10:31:08.396Z,101020.84
2023-04-14T10:33:38.323Z,101021.97
2023-04-14T10:36:05.504Z,101017.00
2023-04-14T10:38:46.059Z,101032.81
2023-04-14T10:41:13.180Z,101024.31
2023-04-14T10:43:40.458Z,101023.97
2023-04-14T10:46:08.543Z,101011.44
2023-04-14T10:48:37.948Z,101017.84
2023-04-14T10:51:09.931Z,101016.63
2023-04-14T10:53:45.898Z,101015.19
2023-04-14T10:56:12.842Z,101009.44
2023-04-14T10:58:39.825Z,101004.50
2023-04-14T11:01:31.218Z,101006.22
2023-04-14T11:04:11.584Z,100997.38
2023-04-14T11:06:47.938Z,100998.03
2023-04-14T11:09:24.342Z,101018.41
2023-04-14T11:11:51.814Z,100999.59
2023-04-14T11:14:26.185Z,101001.16
2023-04-14T11:17:03.762Z,100964.03
2023-04-14T11:19:32.150Z,100964.97
2023-04-14T11:21:59.222Z,100972.03
2023-04-14T11:24:26.878Z,101003.59
2023-04-14T11:26:54.862Z,100965.50
2023-04-14T11:29:22.190Z,101007.66
2023-04-14T11:32:05.918Z,101003.09
2023-04-14T11:34:34.456Z,101001.78
2023-04-14T11:37:04.720Z,100967.78
2023-04-14T11:39:31.627Z,100947.69
2023-04-14T11:42:01.572Z,101006.94
2023-04-14T11:44:28.309Z,100964.28
2023-04-14T11:46:54.982Z,100992.69
2023-04-14T11:49:33.469Z,100979.44
2023-04-14T11:52:05.870Z,100990.13
2023-04-14T11:54:37.453Z,101000.06
2023-04-14T11:57:10.064Z,100936.88
2023-04-14T11:59:47.696Z,100990.03
2023-04-14T12:02:20.079Z,100998.91
2023-04-14T12:04:50.597Z,100976.81
2023-04-14T12:07:19.058Z,100981.66
2023-04-14T12:09:49.656Z,100969.50
2023-04-14T12:12:20.363Z,100991.47
2023-04-14T12:14:49.099Z,101000.06
2023-04-14T12:17:17.350Z,100988.88
2023-04-14T12:19:45.393Z,100992.94
2023-04-14T12:22:13.332Z,100979.78
2023-04-14T12:24:42.755Z,100949.53
2023-04-14T12:27:10.334Z,100976.19
2023-04-14T12:29:37.316Z,100994.25
2023-04-14T12:32:11.142Z,100996.34
2023-04-14T12:34:38.119Z,100993.78
2023-04-14T12:37:12.274Z,100989.13
2023-04-14T12:40:03.298Z,100990.19
2023-04-14T12:42:47.709Z,100991.03
2023-04-14T12:45:16.352Z,100990.81
2023-04-14T12:47:53.248Z,100985.06
2023-04-14T12:50:28.806Z,100971.09
2023-04-14T12:52:56.869Z,100953.94
2023-04-14T12:55:25.822Z,100979.97
2023-04-14T12:57:53.978Z,100981.69
2023-04-14T13:00:26.307Z,100982.72
2023-04-14T13:02:53.052Z,100956.16
2023-04-14T13:05:20.003Z,100979.41
2023-04-14T13:07:46.818Z,100968.13
2023-04-14T13:10:13.734Z,100887.47
2023-04-14T13:12:40.615Z,100963.94
2023-04-14T13:15:07.763Z,100963.34
2023-04-14T13:17:34.635Z,100918.78
2023-04-14T13:20:01.462Z,100894.59
2023-04-14T13:22:28.104Z,100946.91
2023-04-14T13:24:58.606Z,100950.66
2023-04-14T13:27:25.561Z,100943.66
2023-04-14T13:29:52.154Z,100927.41
2023-04-14T13:32:20.291Z,100907.84
2023-04-14T13:34:46.896Z,100916.94
2023-04-14T13:37:13.555Z,100881.28
2023-04-14T13:39:40.344Z,100860.41
2023-04-14T13:42:06.996Z,100909.25
2023-04-14T13:44:35.833Z,100911.06
2023-04-14T13:47:02.866Z,100900.94
2023-04-14T13:49:30.314Z,100878.56
2023-04-14T13:51:56.912Z,100869.25
2023-04-14T13:54:23.521Z,100910.38
2023-04-14T13:56:50.133Z,100900.06
2023-04-14T13:59:17.452Z,100907.91
2023-04-14T14:01:44.158Z,100908.34
2023-04-14T14:04:11.026Z,100876.41
2023-04-14T14:06:37.773Z,100893.53
2023-04-14T14:09:06.605Z,100789.63
2023-04-14T14:11:35.023Z,100795.38
2023-04-14T14:14:02.027Z,100894.72
2023-04-14T14:16:36.665Z,100859.81
2023-04-14T14:19:05.503Z,100889.31
2023-04-14T14:21:32.053Z,100904.63
2023-04-14T14:23:59.435Z,100896.69
2023-04-14T14:26:26.608Z,100897.19
2023-04-14T14:28:53.216Z,100900.53
2023-04-14T14:31:19.815Z,100899.66
2023-04-14T14:33:46.647Z,100852.31
2023-04-14T14:36:15.166Z,100882.44
2023-04-14T14:38:41.836Z,100896.59
2023-04-14T14:41:08.495Z,100866.25
2023-04-14T14:43:35.327Z,100839.31
2023-04-14T14:46:02.382Z,100875.94
2023-04-14T14:48:29.176Z,100881.44
2023-04-14T14:50:55.985Z,100878.00
2023-04-14T14:53:22.744Z,100869.97
2023-04-14T14:55:49.339Z,100854.47
2023-04-14T14:58:16.321Z,100874.03
2023-04-14T15:00:42.883Z,100877.44
2023-04-14T15:03:09.716Z,100887.34
2023-04-14T15:05:38.469Z,100894.44
2023-04-14T15:08:05.592Z,100888.31
2023-04-14T15:10:32.178Z,100886.84
2023-04-14T15:12:58.890Z,100881.38
2023-04-14T15:15:25.534Z,100881.09
2023-04-14T15:17:52.217Z,100883.44
2023-04-14T15:20:18.874Z,100885.34
2023-04-14T15:22:45.682Z,100878.91
2023-04-14T15:25:12.545Z,100877.00
2023-04-14T15:27:39.421Z,100889.03
2023-04-14T15:30:07.063Z,100862.75
2023-04-14T15:32:33.913Z,100827.81
2023-04-14T15:35:03.202Z,100887.84
2023-04-14T15:37:29.914Z,100804.13
2023-04-14T15:39:56.945Z,100868.50
2023-04-14T15:42:23.741Z,100859.53
2023-04-14T15:44:52.016Z,100882.28
2023-04-14T15:47:19.072Z,100878.88
2023-04-14T15:49:49.997Z,100862.25
2023-04-14T15:52:19.062Z,100885.13
2023-04-14T15:54:45.678Z,100877.06
2023-04-14T15:57:12.536Z,100732.09
2023-04-14T15:59:39.193Z,100873.06
2023-04-14T16:02:06.088Z,100878.44
2023-04-14T16:04:32.808Z,100878.38
2023-04-14T16:06:59.457Z,100870.38
2023-04-14T16:09:26.941Z,100882.00
2023-04-14T16:11:53.524Z,100875.31
2023-04-14T16:14:20.090Z,100882.31
2023-04-14T16:16:48.332Z,100878.03
2023-04-14T16:19:17.583Z,100890.16
2023-04-14T16:21:44.490Z,100894.41
2023-04-14T16:24:11.368Z,100894.78
2023-04-14T16:26:38.658Z,100894.34
2023-04-14T16:29:05.510Z,100836.69
2023-04-14T16:31:32.446Z,100881.91
2023-04-14T16:33:59.287Z,100785.34
2023-04-14T16:36:26.462Z,100886.72
2023-04-14T16:38:53.162Z,100837.59
2023-04-14T16:41:20.514Z,100852.72
2023-04-14T16:43:47.668Z,100888.84
2023-04-14T16:46:14.723Z,100886.53
2023-04-14T16:48:41.544Z,100849.84
2023-04-14T16:51:09.217Z,100859.88
2023-04-14T16:53:36.732Z,100895.50
2023-04-14T16:56:10.613Z,100870.97
2023-04-14T16:58:39.019Z,100795.63
2023-04-14T17:01:06.519Z,100887.72
2023-04-14T17:03:34.018Z,100890.38
2023-04-14T17:06:00.866Z,100872.75
2023-04-14T17:08:27.694Z,100844.34
2023-04-14T17:10:57.434Z,100906.03
2023-04-14T17:13:24.112Z,100865.97
2023-04-14T17:15:58.931Z,100906.41
2023-04-14T17:18:34.738Z,100913.16
2023-04-14T17:21:01.366Z,100897.50
2023-04-14T17:23:28.049Z,100893.94
2023-04-14T17:25:55.505Z,100845.25
2023-04-14T17:28:22.908Z,100912.41
2023-04-14T17:30:50.180Z,100919.38
2023-04-14T17:33:17.650Z,100921.97
2023-04-14T17:35:44.372Z,100914.41
2023-04-14T17:38:10.948Z,100947.75
2023-04-14T17:40:37.790Z,100924.50
2023-04-14T17:43:07.513Z,100866.34
2023-04-14T17:45:35.294Z,100922.97
2023-04-14T17:48:01.937Z,100929.25
2023-04-14T17:50:29.545Z,100926.53
2023-04-14T17:52:57.658Z,100898.06
2023-04-14T17:55:24.475Z,100936.31
2023-04-14T17:57:51.741Z,100927.63
2023-04-14T18:00:19.036Z,100931.19
2023-04-14T18:02:45.818Z,100937.59
2023-04-14T18:05:13.311Z,100936.41
2023-04-14T18:07:42.236Z,100935.28
2023-04-14T18:10:09.285Z,100954.22
2023-04-14T18:12:36.829Z,100911.88
2023-04-14T18:15:04.940Z,100941.66
2023-04-14T18:17:31.627Z,100911.47
2023-04-14T18:20:00.859Z,100938.22
2023-04-14T18:22:27.622Z,100964.44
2023-04-14T18:24:54.219Z,100954.63
2023-04-14T18:29:51.374Z,100937.84
2023-04-14T18:32:18.259Z,100903.69
2023-04-14T18:34:45.023Z,100954.50
2023-04-14T18:37:11.928Z,100972.75
2023-04-14T18:39:38.785Z,100970.44
2023-04-14T18:42:05.634Z,100843.47
2023-04-14T18:44:32.819Z,100974.88
2023-04-14T18:46:59.795Z,100975.56
2023-04-14T18:49:26.366Z,100961.84
2023-04-14T18:51:53.571Z,100988.34
2023-04-14T18:54:21.982Z,100946.47
2023-04-14T18:56:48.949Z,100931.69
2023-04-14T18:59:15.635Z,100959.13
2023-04-14T19:01:42.303Z,100956.34
2023-04-14T19:04:09.085Z,100938.50
2023-04-14T19:06:36.769Z,101005.63
2023-04-14T19:09:04.678Z,101018.22
2023-04-14T19:11:36.001Z,101005.31
2023-04-14T19:14:04.811Z,101017.44
2023-04-14T19:16:31.689Z,101021.72
2023-04-14T19:18:58.983Z,101019.53
2023-04-14T19:21:26.259Z,100960.72
2023-04-14T19:23:54.662Z,100988.31
2023-04-14T19:26:21.240Z,100985.06
2023-04-14T19:28:47.998Z,101026.06
2023-04-14T19:31:14.954Z,101025.75
2023-04-14T19:33:42.052Z,101021.53
2023-04-14T19:36:13.109Z,101018.41
2023-04-14T19:38:39.759Z,100881.69
2023-04-14T19:41:06.437Z,101026.00
2023-04-14T19:43:33.075Z,101023.41
2023-04-14T19:46:07.802Z,100907.75
2023-04-14T19:48:34.767Z,100998.00
2023-04-14T19:51:02.177Z,101021.72
2023-04-14T19:53:29.045Z,101028.06
2023-04-14T19:55:58.712Z,101019.59
2023-04-14T19:58:26.966Z,100982.06
2023-04-14T20:00:57.409Z,101029.06
2023-04-14T20:03:25.087Z,101024.06
2023-04-14T20:05:55.828Z,101019.94
2023-04-14T20:08:23.592Z,101023.13
2023-04-14T20:10:52.108Z,101031.47
2023-04-14T20:13:23.279Z,100935.81
2023-04-14T20:15:53.928Z,101003.50
2023-04-14T20:18:22.874Z,101019.00
2023-04-14T20:20:49.822Z,101007.63
2023-04-14T20:23:16.444Z,101024.53
2023-04-14T20:25:44.176Z,100921.53
2023-04-14T20:28:10.780Z,101008.50
2023-04-14T20:30:37.947Z,101022.19
2023-04-14T20:33:04.744Z,100967.41
2023-04-14T20:35:35.738Z,100919.09
2023-04-14T20:38:02.768Z,100994.16
2023-04-14T20:40:30.398Z,101004.47
2023-04-14T20:42:57.134Z,100937.44
2023-04-14T20:45:23.850Z,100973.28
2023-04-14T20:47:51.074Z,101008.50
2023-04-14T20:50:18.849Z,100997.72
2023-04-14T20:52:46.702Z,101011.66
2023-04-14T20:55:16.361Z,100947.72
2023-04-14T20:57:43.310Z,100977.72
2023-04-14T21:00:12.190Z,100974.88
2023-04-14T21:02:39.166Z,101005.75
2023-04-14T21:05:06.303Z,101004.09
2023-04-14T21:07:35.085Z,100966.47
2023-04-14T21:10:01.961Z,100910.09
2023-04-14T21:12:35.934Z,100974.03
2023-04-14T21:15:44.117Z,100995.56
2023-04-14T21:17:52.503Z,100963.03
2023-04-14T21:20:19.238Z,100953.47
2023-04-14T21:22:46.176Z,100996.38
2023-04-14T21:25:12.934Z,100997.34
2023-04-14T21:27:39.846Z,100997.34
2023-04-14T21:30:07.195Z,100966.72
2023-04-14T21:32:34.387Z,100953.56
2023-04-14T21:35:01.263Z,100989.31
2023-04-14T21:37:27.958Z,101001.22
2023-04-14T21:39:55.543Z,100967.69
2023-04-14T21:42:22.451Z,100995.75
2023-04-14T21:44:49.428Z,100986.06
2023-04-14T21:47:16.499Z,101002.22
2023-04-14T21:49:43.110Z,101001.97
2023-04-14T21:52:10.287Z,100957.47
2023-04-14T21:54:40.436Z,100955.13
2023-04-14T21:57:07.875Z,101007.50
2023-04-14T21:59:34.409Z,100958.81
2023-04-14T22:02:01.277Z,100990.38
2023-04-14T22:04:35.941Z,100996.59
2023-04-14T22:07:03.326Z,100948.56
2023-04-14T22:09:30.109Z,100987.28
2023-04-14T22:11:57.779Z,100924.09
2023-04-14T22:14:24.424Z,100991.47
2023-04-14T22:16:51.035Z,100987.78
2023-04-14T22:19:18.105Z,100989.16
2023-04-14T22:21:44.656Z,100997.34
2023-04-14T22:24:11.446Z,100994.66
2023-04-14T22:26:38.078Z,100999.28
2023-04-14T22:29:04.996Z,100969.34
2023-04-14T22:31:32.380Z,100993.56
2023-04-14T22:33:59.038Z,100986.75
2023-04-14T22:36:25.676Z,100921.53
2023-04-14T22:38:52.324Z,100989.53
2023-04-14T22:41:18.908Z,100964.44
2023-04-14T22:43:45.508Z,100917.13
2023-04-14T22:46:12.217Z,100940.47
2023-04-14T22:48:38.813Z,100938.91
2023-04-14T22:51:05.659Z,100990.16
2023-04-14T22:53:32.364Z,100921.06
2023-04-14T22:55:59.009Z,101004.13
2023-04-14T22:58:25.991Z,100926.19
2023-04-14T23:00:52.780Z,100982.56
2023-04-14T23:03:19.520Z,100998.38
2023-04-14T23:05:46.449Z,100991.97
2023-04-14T23:08:13.105Z,100985.41
2023-04-14T23:10:39.651Z,100975.25
2023-04-14T23:13:06.581Z,100985.91
2023-04-14T23:15:33.284Z,100986.41
2023-04-14T23:17:59.947Z,100927.19
2023-04-14T23:20:27.186Z,100984.06
2023-04-14T23:22:53.844Z,100983.09
2023-04-14T23:25:20.381Z,100983.72
2023-04-14T23:27:47.227Z,100975.41
2023-04-14T23:30:14.344Z,100901.97
2023-04-14T23:32:40.912Z,100970.38
2023-04-14T23:35:08.027Z,100974.41
2023-04-14T23:37:34.603Z,100985.78
2023-04-14T23:40:01.231Z,100967.06
2023-04-14T23:42:28.005Z,100978.44
2023-04-14T23:44:54.590Z,100973.78
2023-04-14T23:47:21.850Z,100980.31
2023-04-14T23:49:48.532Z,100974.19
2023-04-14T23:52:15.111Z,100975.03
2023-04-14T23:54:41.970Z,100969.78
2023-04-14T23:57:09.114Z,100927.44
2023-04-14T23:59:36.334Z,100914.06
